Time;durP1;ratioP1;P1;durP2;ratioP2;P2;SDS_P1;SDS_P2;PMS_P1;PMS_P2;Temp;Humidity;BMP_temperature;BMP_pressure;BME280_temperature;BME280_humidity;BME280_pressure;Samples;Min_cycle;Max_cycle;Signal;HPM_P1;HPM_P2
2022/01/02 00:00:44;;;;;;;0.93;0.80;;;3.50;99.90;;;;;;2114165;28;20188;-68
2022/01/02 00:01:47;;;;;;;0.70;0.70;;;3.50;99.90;;;;;;2101307;28;20209;-68
2022/01/02 00:02:51;;;;;;;2.45;0.88;;;3.50;99.90;;;;;;2113724;28;20644;-67
2022/01/02 00:03:52;;;;;;;1.02;0.90;;;3.50;99.90;;;;;;2118387;27;20659;-67
2022/01/02 00:05:03;;;;;;;1.83;0.93;;;3.50;99.90;;;;;;2113852;28;20204;-66
2022/01/02 00:06:03;;;;;;;0.95;0.80;;;3.50;99.90;;;;;;2113224;28;20233;-65
2022/01/02 00:07:06;;;;;;;1.33;0.90;;;3.50;99.90;;;;;;2116125;28;20675;-69
2022/01/02 00:08:11;;;;;;;2.15;0.98;;;3.50;99.90;;;;;;2121849;28;20178;-67
2022/01/02 00:09:35;;;;;;;1.40;0.90;;;3.50;99.90;;;;;;2109518;28;21495;-68
2022/01/02 00:10:52;;;;;;;2.08;0.80;;;3.50;99.90;;;;;;2108076;28;20539;-69
2022/01/02 00:12:10;;;;;;;2.20;0.82;;;3.50;99.90;;;;;;2102797;28;20185;-67
2022/01/02 00:13:20;;;;;;;1.17;0.90;;;3.40;99.90;;;;;;2111364;28;20205;-69
2022/01/02 00:14:25;;;;;;;1.10;0.80;;;3.40;99.90;;;;;;2113343;28;20590;-68
2022/01/02 00:15:27;;;;;;;1.02;0.77;;;3.40;99.90;;;;;;2118837;28;20259;-66
2022/01/02 00:16:29;;;;;;;1.27;0.60;;;3.40;99.90;;;;;;2113355;28;20169;-69
2022/01/02 00:17:31;;;;;;;1.25;0.90;;;3.30;99.90;;;;;;2106107;28;20633;-68
2022/01/02 00:18:35;;;;;;;0.80;0.70;;;3.40;99.90;;;;;;2113260;28;20217;-67
2022/01/02 00:19:40;;;;;;;0.90;0.80;;;3.30;99.90;;;;;;2120591;28;20175;-67
2022/01/02 00:20:48;;;;;;;0.93;0.70;;;3.30;99.90;;;;;;2121314;28;20591;-68
2022/01/02 00:21:52;;;;;;;0.90;0.70;;;3.30;99.90;;;;;;2112113;28;20195;-73
2022/01/02 00:22:52;;;;;;;1.27;0.88;;;3.30;99.90;;;;;;2106240;28;20224;-70
2022/01/02 00:24:00;;;;;;;0.97;0.80;;;3.30;99.90;;;;;;2113387;28;20181;-68
2022/01/02 00:25:06;;;;;;;1.90;0.85;;;3.30;99.90;;;;;;2110259;28;20181;-66
2022/01/02 00:26:15;;;;;;;1.38;0.95;;;3.40;99.90;;;;;;2110544;28;20221;-67
2022/01/02 00:27:18;;;;;;;1.80;0.80;;;3.40;99.90;;;;;;2113562;28;20567;-68
2022/01/02 00:28:19;;;;;;;0.85;0.60;;;3.40;99.90;;;;;;2113403;28;20237;-68
2022/01/02 00:29:21;;;;;;;1.05;0.90;;;3.40;99.90;;;;;;2115594;28;20541;-69
2022/01/02 00:30:22;;;;;;;1.17;0.90;;;3.40;99.90;;;;;;2104512;28;20272;-70
2022/01/02 00:31:24;;;;;;;0.90;0.60;;;3.40;99.90;;;;;;2118606;28;20188;-68
2022/01/02 00:32:26;;;;;;;1.00;0.70;;;3.50;99.90;;;;;;2121891;28;20208;-69
2022/01/02 00:33:27;;;;;;;0.70;0.70;;;3.40;99.90;;;;;;2114997;28;20180;-69
2022/01/02 00:34:28;;;;;;;1.90;0.80;;;3.40;99.90;;;;;;2112770;28;20180;-69
2022/01/02 00:35:30;;;;;;;1.00;0.88;;;3.40;99.90;;;;;;2119446;28;20234;-71
2022/01/02 00:36:32;;;;;;;1.00;0.70;;;3.40;99.90;;;;;;2121131;28;20204;-69
2022/01/02 00:37:32;;;;;;;0.75;0.70;;;3.40;99.90;;;;;;2114353;28;20178;-69
2022/01/02 00:38:35;;;;;;;0.60;0.60;;;3.40;99.90;;;;;;2104312;28;20187;-69
2022/01/02 00:39:37;;;;;;;2.60;0.73;;;3.40;99.90;;;;;;2120395;28;20165;-71
2022/01/02 00:40:44;;;;;;;0.80;0.63;;;3.40;99.90;;;;;;2121967;27;20656;-70
2022/01/02 00:41:57;;;;;;;0.70;0.70;;;3.30;99.90;;;;;;2112356;28;20306;-67
2022/01/02 00:43:04;;;;;;;1.73;0.60;;;3.30;99.90;;;;;;2113247;28;20175;-69
2022/01/02 00:44:11;;;;;;;1.00;0.70;;;3.30;99.90;;;;;;2118787;28;20173;-68
2022/01/02 00:45:24;;;;;;;0.77;0.70;;;3.30;99.90;;;;;;2121106;28;20837;-66
2022/01/02 00:46:27;;;;;;;1.02;0.73;;;3.30;99.90;;;;;;2121835;27;20165;-67
2022/01/02 00:47:48;;;;;;;0.88;0.63;;;3.30;99.90;;;;;;2121653;28;20655;-67
2022/01/02 00:48:56;;;;;;;1.13;0.80;;;3.30;99.90;;;;;;2107332;28;20178;-68
2022/01/02 00:50:18;;;;;;;1.02;0.63;;;3.30;99.90;;;;;;2104976;28;20805;-67
2022/01/02 00:51:47;;;;;;;0.68;0.52;;;3.30;99.90;;;;;;2104974;28;20185;-67
2022/01/02 00:52:50;;;;;;;2.67;0.68;;;3.30;99.90;;;;;;2105151;28;20188;-67
2022/01/02 00:53:55;;;;;;;2.90;0.95;;;3.30;99.90;;;;;;2105262;28;20208;-67
2022/01/02 00:54:57;;;;;;;1.90;0.80;;;3.40;99.90;;;;;;2105467;28;20189;-67
2022/01/02 00:56:00;;;;;;;1.00;0.73;;;3.40;99.90;;;;;;2105108;28;20208;-67
2022/01/02 00:57:08;;;;;;;0.80;0.70;;;3.40;99.90;;;;;;2104824;28;20672;-67
2022/01/02 00:58:16;;;;;;;0.70;0.60;;;3.40;99.90;;;;;;2105153;28;20584;-67
2022/01/02 00:59:25;;;;;;;0.70;0.68;;;3.50;99.90;;;;;;2105063;28;20227;-68
2022/01/02 01:00:27;;;;;;;0.77;0.70;;;3.50;99.90;;;;;;2105034;28;20666;-67
2022/01/02 01:01:34;;;;;;;0.93;0.80;;;3.50;99.90;;;;;;2105095;28;20541;-67
2022/01/02 01:02:41;;;;;;;0.93;0.70;;;3.50;99.90;;;;;;2105098;28;20185;-67
2022/01/02 01:03:42;;;;;;;0.80;0.68;;;3.40;99.90;;;;;;2105067;28;20174;-67
2022/01/02 01:04:44;;;;;;;1.07;0.70;;;3.40;99.90;;;;;;2105241;28;20597;-67
2022/01/02 01:05:45;;;;;;;1.63;0.90;;;3.40;99.90;;;;;;2104699;28;20660;-67
2022/01/02 01:06:50;;;;;;;1.35;0.80;;;3.40;99.90;;;;;;2104874;28;20273;-67
2022/01/02 01:07:57;;;;;;;1.35;0.60;;;3.30;99.90;;;;;;2106028;28;20192;-67
2022/01/02 01:09:04;;;;;;;0.95;0.80;;;3.30;99.90;;;;;;2106718;28;20182;-67
2022/01/02 01:10:11;;;;;;;0.60;0.60;;;3.30;99.90;;;;;;2107107;28;20269;-68
2022/01/02 01:11:11;;;;;;;1.73;0.93;;;3.30;99.90;;;;;;2106480;28;20194;-67
2022/01/02 01:12:12;;;;;;;3.17;0.80;;;3.20;99.90;;;;;;2106431;28;20296;-67
2022/01/02 01:13:13;;;;;;;0.83;0.70;;;3.20;99.90;;;;;;2107195;28;20178;-68
2022/01/02 01:14:13;;;;;;;4.20;0.70;;;3.20;99.90;;;;;;2106422;28;20254;-67
2022/01/02 01:15:14;;;;;;;2.90;0.70;;;3.20;99.90;;;;;;2097770;28;20677;-67
2022/01/02 01:16:18;;;;;;;1.00;0.90;;;3.20;99.90;;;;;;2106396;28;20188;-67
2022/01/02 01:17:18;;;;;;;1.20;0.85;;;3.20;99.90;;;;;;2106244;28;20174;-67
2022/01/02 01:18:19;;;;;;;0.67;0.67;;;3.20;99.90;;;;;;2106452;28;20276;-68
2022/01/02 01:19:22;;;;;;;2.93;0.93;;;3.20;99.90;;;;;;2106447;28;20164;-67
2022/01/02 01:20:28;;;;;;;1.02;0.80;;;3.20;99.90;;;;;;2106413;28;20170;-67
2022/01/02 01:21:29;;;;;;;0.90;0.80;;;3.20;99.90;;;;;;2106602;28;20181;-67
2022/01/02 01:22:30;;;;;;;9.83;1.23;;;3.20;99.90;;;;;;2106910;28;20224;-67
2022/01/02 01:23:31;;;;;;;1.10;1.00;;;3.20;99.90;;;;;;2106012;28;20175;-67
2022/01/02 01:24:35;;;;;;;1.60;1.35;;;3.20;99.90;;;;;;2108869;28;20643;-67
2022/01/02 01:25:38;;;;;;;1.42;0.75;;;3.20;99.90;;;;;;2115450;28;20598;-66
2022/01/02 01:26:40;;;;;;;2.40;1.02;;;3.20;99.90;;;;;;2115278;28;20169;-67
2022/01/02 01:27:41;;;;;;;1.63;1.10;;;3.20;99.90;;;;;;2115350;28;20264;-67
2022/01/02 01:28:41;;;;;;;0.77;0.70;;;3.20;99.90;;;;;;2114684;28;20173;-67
2022/01/02 01:29:42;;;;;;;2.93;0.83;;;3.20;99.90;;;;;;2106424;28;20184;-68
2022/01/02 01:30:43;;;;;;;1.27;0.80;;;3.20;99.90;;;;;;2114683;28;20169;-68
2022/01/02 01:31:46;;;;;;;1.90;1.00;;;3.10;99.90;;;;;;2114764;28;20252;-67
2022/01/02 01:32:47;;;;;;;0.73;0.70;;;3.10;99.90;;;;;;2114734;28;20213;-67
2022/01/02 01:33:48;;;;;;;0.82;0.60;;;3.10;99.90;;;;;;2114820;28;20568;-68
2022/01/02 01:34:48;;;;;;;1.10;0.77;;;3.10;99.90;;;;;;2114596;28;20190;-68
2022/01/02 01:35:49;;;;;;;1.00;0.80;;;3.00;99.90;;;;;;2115412;28;20199;-68
2022/01/02 01:36:50;;;;;;;0.67;0.63;;;3.10;99.90;;;;;;2115245;28;20276;-67
2022/01/02 01:37:51;;;;;;;0.60;0.60;;;3.10;99.90;;;;;;2115284;28;20181;-68
2022/01/02 01:38:51;;;;;;;2.30;0.70;;;3.20;99.90;;;;;;2115333;28;20176;-67
2022/01/02 01:39:52;;;;;;;0.50;0.50;;;3.20;99.90;;;;;;2115367;28;20181;-67
2022/01/02 01:41:03;;;;;;;0.90;0.80;;;3.20;99.90;;;;;;2115218;28;20302;-67
2022/01/02 01:42:10;;;;;;;1.67;0.90;;;3.20;99.90;;;;;;2114769;28;20173;-67
2022/01/02 01:43:13;;;;;;;0.90;0.80;;;3.20;99.90;;;;;;2114781;28;20180;-67
2022/01/02 01:46:18;;;;;;;1.15;0.75;;;3.40;99.90;;;;;;2106780;28;20185;-67
2022/01/02 01:47:19;;;;;;;1.10;1.00;;;3.40;99.90;;;;;;2106433;28;20271;-68
2022/01/02 01:48:20;;;;;;;1.55;0.80;;;3.40;99.90;;;;;;2114530;28;20165;-67
2022/01/02 01:49:29;;;;;;;0.73;0.70;;;3.40;99.90;;;;;;2115184;28;20180;-68
2022/01/02 01:50:37;;;;;;;0.80;0.80;;;3.40;99.90;;;;;;2114649;28;20169;-67
2022/01/02 01:51:37;;;;;;;1.13;0.80;;;3.40;99.90;;;;;;2114762;28;20202;-67
2022/01/02 01:52:38;;;;;;;0.93;0.80;;;3.40;99.90;;;;;;2115295;28;20660;-68
2022/01/02 01:53:39;;;;;;;1.07;0.70;;;3.40;99.90;;;;;;2115197;28;20688;-68
2022/01/02 01:54:39;;;;;;;0.90;0.80;;;3.40;99.90;;;;;;2115101;28;20169;-67
2022/01/02 01:55:40;;;;;;;0.60;0.60;;;3.30;99.90;;;;;;2115242;28;20173;-68
2022/01/02 01:56:41;;;;;;;1.33;0.50;;;3.30;99.90;;;;;;2115190;28;20180;-67
2022/01/02 01:57:42;;;;;;;1.17;0.68;;;3.30;99.90;;;;;;2115109;28;20208;-67
2022/01/02 01:58:44;;;;;;;0.60;0.47;;;3.30;99.90;;;;;;2115256;28;20189;-68
2022/01/02 01:59:48;;;;;;;0.60;0.60;;;3.30;99.90;;;;;;2114502;28;20607;-68
2022/01/02 02:00:48;;;;;;;0.80;0.60;;;3.30;99.90;;;;;;2114732;28;20235;-68
2022/01/02 02:01:50;;;;;;;0.83;0.77;;;3.30;99.90;;;;;;2114579;28;20183;-67
2022/01/02 02:02:51;;;;;;;1.00;0.75;;;3.30;99.90;;;;;;2114629;28;20180;-68
2022/01/02 02:03:52;;;;;;;0.87;0.70;;;3.30;99.90;;;;;;2114490;28;20197;-67
2022/01/02 02:04:53;;;;;;;0.52;0.50;;;3.30;99.90;;;;;;2114351;28;20170;-68
2022/01/02 02:05:53;;;;;;;1.03;0.60;;;3.30;99.90;;;;;;2115085;28;20182;-68
2022/01/02 02:06:56;;;;;;;1.13;0.70;;;3.20;99.90;;;;;;2115052;28;20264;-67
2022/01/02 02:07:56;;;;;;;0.70;0.60;;;3.20;99.90;;;;;;2114493;28;20259;-67
2022/01/02 02:08:59;;;;;;;0.70;0.60;;;3.10;99.90;;;;;;2114645;28;20176;-68
2022/01/02 02:10:12;;;;;;;0.75;0.60;;;3.10;99.90;;;;;;2114328;28;20204;-67
2022/01/02 02:11:13;;;;;;;0.60;0.60;;;3.20;99.90;;;;;;2108020;28;20197;-67
2022/01/02 02:12:14;;;;;;;0.85;0.80;;;3.20;99.90;;;;;;2107181;28;20209;-67
2022/01/02 02:13:15;;;;;;;1.00;0.82;;;3.20;99.90;;;;;;2114485;28;20596;-67
2022/01/02 02:14:16;;;;;;;0.50;0.50;;;3.10;99.90;;;;;;2115024;28;20172;-67
2022/01/02 02:15:18;;;;;;;0.75;0.60;;;3.10;99.90;;;;;;2114869;28;20425;-67
2022/01/02 02:16:19;;;;;;;0.60;0.60;;;3.10;99.90;;;;;;2114381;28;20674;-67
2022/01/02 02:17:19;;;;;;;2.30;0.63;;;3.10;99.90;;;;;;2114309;28;20185;-67
2022/01/02 02:18:20;;;;;;;1.47;0.60;;;3.00;99.90;;;;;;2114960;28;20182;-67
2022/01/02 02:19:21;;;;;;;0.43;0.43;;;3.00;99.90;;;;;;2114257;28;20177;-68
2022/01/02 02:20:35;;;;;;;0.97;0.60;;;3.00;99.90;;;;;;2114938;28;20260;-67
2022/01/02 02:21:37;;;;;;;0.90;0.70;;;3.00;99.90;;;;;;2115087;28;21171;-67
2022/01/02 02:22:40;;;;;;;2.83;1.10;;;3.00;99.90;;;;;;2114426;28;20173;-67
2022/01/02 02:23:44;;;;;;;1.30;0.60;;;3.00;99.90;;;;;;2114556;28;20181;-67
2022/01/02 02:24:45;;;;;;;0.95;0.60;;;3.00;99.90;;;;;;2114912;28;20168;-67
2022/01/02 02:25:45;;;;;;;1.30;0.83;;;3.00;99.90;;;;;;2115112;28;20548;-68
2022/01/02 02:26:48;;;;;;;0.60;0.60;;;2.90;99.90;;;;;;2114868;28;20538;-67
2022/01/02 02:28:00;;;;;;;0.50;0.50;;;2.90;99.90;;;;;;2115052;28;20163;-67
2022/01/02 02:29:03;;;;;;;0.40;0.40;;;2.90;99.90;;;;;;2115029;28;20176;-67
2022/01/02 02:30:06;;;;;;;1.52;0.73;;;2.80;99.90;;;;;;2115069;28;20647;-67
2022/01/02 02:31:06;;;;;;;0.82;0.80;;;2.80;99.90;;;;;;2114946;27;20223;-67
2022/01/02 02:32:07;;;;;;;0.60;0.60;;;2.80;99.90;;;;;;2114924;28;20610;-67
2022/01/02 02:33:09;;;;;;;1.03;0.80;;;2.70;99.90;;;;;;2114345;28;20176;-67
2022/01/02 02:34:10;;;;;;;0.80;0.70;;;2.70;99.90;;;;;;2106151;28;20260;-68
2022/01/02 02:35:11;;;;;;;1.40;0.70;;;2.70;99.90;;;;;;2114354;28;20181;-67
2022/01/02 02:36:13;;;;;;;1.10;1.00;;;2.70;99.90;;;;;;2114428;28;20173;-68
2022/01/02 02:37:14;;;;;;;0.80;0.80;;;2.60;99.90;;;;;;2105974;28;20615;-68
2022/01/02 02:38:17;;;;;;;1.27;0.90;;;2.60;99.90;;;;;;2114424;28;20216;-67
2022/01/02 02:39:18;;;;;;;0.60;0.60;;;2.50;99.90;;;;;;2105895;28;20215;-67
2022/01/02 02:40:23;;;;;;;1.23;0.50;;;2.50;99.90;;;;;;2097597;28;20186;-67
2022/01/02 02:41:30;;;;;;;34.10;2.03;;;2.50;99.90;;;;;;2114986;27;20189;-67
2022/01/02 02:42:42;;;;;;;10.48;1.38;;;2.50;99.90;;;;;;2122087;27;20176;-68
2022/01/02 02:44:43;;;;;;;3.53;0.80;;;2.50;99.90;;;;;;2114927;28;20180;-67
2022/01/02 02:49:48;;;;;;;0.80;0.70;;;2.60;99.90;;;;;;2106503;28;21176;-68
2022/01/02 02:50:49;;;;;;;1.10;0.70;;;2.60;99.90;;;;;;2106307;28;20200;-67
2022/01/02 02:51:54;;;;;;;0.50;0.50;;;2.60;99.90;;;;;;2106290;28;20582;-67
2022/01/02 02:52:55;;;;;;;0.65;0.60;;;2.70;99.90;;;;;;2106465;28;20196;-67
2022/01/02 02:53:56;;;;;;;0.60;0.60;;;2.60;99.90;;;;;;2106493;28;20725;-68
2022/01/02 02:54:56;;;;;;;0.50;0.50;;;2.60;99.90;;;;;;2106381;28;20212;-68
2022/01/02 02:55:59;;;;;;;0.70;0.60;;;2.60;99.90;;;;;;2105741;28;20178;-67
2022/01/02 02:57:00;;;;;;;0.88;0.80;;;2.60;99.90;;;;;;2105618;28;20815;-68
2022/01/02 02:58:17;;;;;;;1.10;0.80;;;2.60;99.90;;;;;;2106245;28;20209;-68
2022/01/02 02:59:18;;;;;;;0.63;0.63;;;2.60;99.90;;;;;;2106376;28;20167;-67
2022/01/02 03:00:18;;;;;;;0.80;0.80;;;2.50;99.90;;;;;;2106307;28;20602;-67
2022/01/02 03:01:22;;;;;;;1.13;0.80;;;2.50;99.90;;;;;;2105676;28;20194;-67
2022/01/02 03:02:22;;;;;;;1.63;0.60;;;2.50;99.90;;;;;;2105696;28;20175;-67
2022/01/02 03:03:23;;;;;;;1.13;0.60;;;2.50;99.90;;;;;;2105725;28;20564;-68
2022/01/02 03:04:25;;;;;;;1.23;0.70;;;2.50;99.90;;;;;;2097388;28;20204;-67
2022/01/02 03:05:26;;;;;;;1.35;0.90;;;2.50;99.90;;;;;;2105662;28;20625;-67
2022/01/02 03:06:27;;;;;;;0.70;0.70;;;2.50;99.90;;;;;;2105756;28;20206;-68
2022/01/02 03:07:27;;;;;;;0.90;0.70;;;2.50;99.90;;;;;;2105749;28;20199;-68
2022/01/02 03:08:28;;;;;;;0.90;0.70;;;2.50;99.90;;;;;;2106260;28;20173;-68
2022/01/02 03:09:40;;;;;;;1.70;0.85;;;2.50;99.90;;;;;;2105562;28;20580;-67
2022/01/02 03:10:41;;;;;;;1.40;0.68;;;2.50;99.90;;;;;;2105823;28;20180;-68
2022/01/02 03:11:42;;;;;;;0.80;0.50;;;2.40;99.90;;;;;;2105670;28;20682;-67
2022/01/02 03:12:43;;;;;;;1.30;0.70;;;2.40;99.90;;;;;;2097424;28;20177;-67
2022/01/02 03:13:47;;;;;;;1.40;0.73;;;2.40;99.90;;;;;;2105730;28;20172;-67
2022/01/02 03:14:47;;;;;;;1.17;1.00;;;2.30;99.90;;;;;;2105639;28;20314;-67
2022/01/02 03:15:48;;;;;;;1.17;0.60;;;2.30;99.90;;;;;;2106176;28;20229;-68
2022/01/02 03:16:48;;;;;;;1.30;0.90;;;2.20;99.90;;;;;;2106181;28;20613;-67
2022/01/02 03:17:49;;;;;;;1.97;1.20;;;2.20;99.90;;;;;;2106151;28;20196;-68
2022/01/02 03:18:50;;;;;;;0.80;0.63;;;2.20;99.90;;;;;;2106194;28;20881;-67
2022/01/02 03:19:50;;;;;;;1.40;0.80;;;2.10;99.90;;;;;;2114009;28;20645;-68
2022/01/02 03:20:51;;;;;;;5.07;1.27;;;2.10;99.90;;;;;;2113859;28;20190;-68
2022/01/02 03:21:52;;;;;;;1.80;0.80;;;2.10;99.90;;;;;;2105573;28;20634;-67
2022/01/02 03:22:52;;;;;;;14.87;2.60;;;2.10;99.90;;;;;;2105622;28;20176;-67
2022/01/02 03:23:53;;;;;;;4.83;1.17;;;2.00;99.90;;;;;;2106997;28;20172;-67
2022/01/02 03:24:54;;;;;;;1.33;0.97;;;2.10;99.90;;;;;;2114176;28;20678;-67
2022/01/02 03:25:55;;;;;;;1.70;1.30;;;2.00;99.90;;;;;;2114623;28;20592;-67
2022/01/02 03:26:55;;;;;;;2.30;1.20;;;2.10;99.90;;;;;;2105297;28;20188;-67
2022/01/02 03:27:56;;;;;;;2.90;1.23;;;2.10;99.90;;;;;;2105613;28;20185;-68
2022/01/02 03:28:57;;;;;;;1.20;1.10;;;2.10;99.90;;;;;;2114549;28;20211;-67
2022/01/02 03:29:57;;;;;;;4.30;2.20;;;2.10;99.90;;;;;;2114487;28;20179;-68
2022/01/02 03:30:58;;;;;;;2.13;1.53;;;2.20;99.90;;;;;;2113643;28;20202;-67
2022/01/02 03:31:58;;;;;;;2.53;1.33;;;2.20;99.90;;;;;;2113946;28;20190;-67
2022/01/02 03:32:59;;;;;;;1.93;1.20;;;2.10;99.90;;;;;;2105546;28;20184;-67
2022/01/02 03:34:00;;;;;;;2.07;1.30;;;2.20;99.90;;;;;;2088633;28;20189;-68
2022/01/02 03:35:01;;;;;;;0.93;0.83;;;2.20;99.90;;;;;;2097057;28;20168;-67
2022/01/02 03:36:02;;;;;;;1.10;0.80;;;2.20;99.90;;;;;;2113750;28;20591;-67
2022/01/02 03:37:03;;;;;;;3.25;1.05;;;2.30;99.90;;;;;;2114332;28;20185;-67
2022/01/02 03:38:04;;;;;;;1.70;1.20;;;2.40;99.90;;;;;;2114374;28;20175;-68
2022/01/02 03:39:05;;;;;;;1.15;1.00;;;2.40;99.90;;;;;;2114387;28;20201;-67
2022/01/02 03:40:08;;;;;;;0.97;0.80;;;2.40;99.90;;;;;;2114325;28;20189;-67
2022/01/02 03:41:08;;;;;;;1.30;0.70;;;2.40;99.90;;;;;;2113590;28;20776;-67
2022/01/02 03:42:09;;;;;;;1.27;0.80;;;2.40;99.90;;;;;;2113777;28;20179;-67
2022/01/02 03:43:10;;;;;;;0.90;0.70;;;2.40;99.90;;;;;;2114438;28;20176;-67
2022/01/02 03:44:10;;;;;;;2.33;0.80;;;2.40;99.90;;;;;;2114387;28;20192;-67
2022/01/02 03:45:11;;;;;;;0.80;0.80;;;2.40;99.90;;;;;;2114309;28;20183;-67
2022/01/02 03:46:12;;;;;;;1.25;0.90;;;2.40;99.90;;;;;;2114355;28;20186;-67
2022/01/02 03:47:13;;;;;;;1.48;0.82;;;2.40;99.90;;;;;;2113637;28;20733;-68
2022/01/02 03:48:14;;;;;;;0.90;0.70;;;2.40;99.90;;;;;;2113714;28;20184;-67
2022/01/02 03:49:15;;;;;;;0.80;0.60;;;2.40;99.90;;;;;;2114398;28;20175;-67
2022/01/02 03:50:16;;;;;;;0.90;0.70;;;2.40;99.90;;;;;;2113752;28;20182;-68
2022/01/02 03:51:17;;;;;;;1.95;0.90;;;2.40;99.90;;;;;;2105300;28;20231;-67
2022/01/02 03:52:17;;;;;;;1.47;0.70;;;2.40;99.90;;;;;;2105102;28;20223;-67
2022/01/02 03:53:18;;;;;;;1.10;0.80;;;2.40;99.90;;;;;;2105350;28;20172;-67
2022/01/02 03:54:18;;;;;;;0.87;0.80;;;2.40;99.90;;;;;;2113719;28;20172;-67
2022/01/02 03:55:19;;;;;;;1.00;0.80;;;2.40;99.90;;;;;;2114125;28;20171;-67
2022/01/02 03:56:20;;;;;;;0.77;0.70;;;2.40;99.90;;;;;;2114299;28;20709;-67
2022/01/02 03:57:21;;;;;;;0.80;0.80;;;2.40;99.90;;;;;;2113423;28;20179;-67
2022/01/02 03:58:21;;;;;;;0.87;0.70;;;2.40;99.90;;;;;;2113664;28;20175;-68
2022/01/02 03:59:22;;;;;;;0.97;0.80;;;2.30;99.90;;;;;;2114313;28;20175;-68
2022/01/02 04:00:23;;;;;;;1.13;0.93;;;2.30;99.90;;;;;;2113644;28;20251;-67
2022/01/02 04:01:23;;;;;;;1.83;0.77;;;2.30;99.90;;;;;;2113658;28;20195;-67
2022/01/02 04:02:24;;;;;;;0.83;0.60;;;2.30;99.90;;;;;;2114161;28;20176;-68
2022/01/02 04:03:25;;;;;;;1.27;0.70;;;2.30;99.90;;;;;;2114357;28;20167;-67
2022/01/02 04:04:28;;;;;;;1.03;0.80;;;2.20;99.90;;;;;;2114250;28;20176;-67
2022/01/02 04:05:28;;;;;;;0.93;0.70;;;2.20;99.90;;;;;;2114293;28;20260;-67
2022/01/02 04:06:29;;;;;;;1.00;0.90;;;2.10;99.90;;;;;;2114196;28;20175;-67
2022/01/02 04:07:30;;;;;;;1.07;0.70;;;2.10;99.90;;;;;;2114156;28;20184;-67
2022/01/02 04:08:30;;;;;;;1.17;0.80;;;2.10;99.90;;;;;;2114278;28;20265;-67
2022/01/02 04:09:31;;;;;;;0.60;0.60;;;2.00;99.90;;;;;;2114256;28;20182;-67
2022/01/02 04:10:32;;;;;;;1.10;0.80;;;1.90;99.90;;;;;;2114157;28;20694;-68
2022/01/02 04:11:32;;;;;;;0.63;0.60;;;1.90;99.90;;;;;;2114284;28;20194;-67
2022/01/02 04:12:34;;;;;;;0.80;0.70;;;1.90;99.90;;;;;;2114221;28;20240;-67
2022/01/02 04:13:34;;;;;;;0.98;0.82;;;1.90;99.90;;;;;;2113586;28;20199;-67
2022/01/02 04:14:35;;;;;;;0.70;0.70;;;1.90;99.90;;;;;;2113582;28;20166;-68
2022/01/02 04:15:36;;;;;;;0.83;0.80;;;1.80;99.90;;;;;;2114257;28;20186;-67
2022/01/02 04:16:37;;;;;;;1.53;0.80;;;1.80;99.90;;;;;;2114258;28;20205;-67
2022/01/02 04:17:38;;;;;;;0.50;0.50;;;1.80;99.90;;;;;;2113358;28;20174;-67
2022/01/02 04:18:38;;;;;;;0.70;0.70;;;1.80;99.90;;;;;;2105250;28;20263;-67
2022/01/02 04:19:39;;;;;;;0.70;0.70;;;1.70;99.90;;;;;;2113645;28;20200;-68
2022/01/02 04:20:40;;;;;;;1.17;0.80;;;1.70;99.90;;;;;;2114212;28;20166;-66
2022/01/02 04:21:41;;;;;;;0.50;0.50;;;1.70;99.90;;;;;;2114203;28;20206;-67
2022/01/02 04:22:42;;;;;;;0.73;0.67;;;1.70;99.90;;;;;;2114229;28;20171;-67
2022/01/02 04:23:42;;;;;;;0.50;0.50;;;1.70;99.90;;;;;;2114100;28;20189;-67
2022/01/02 04:24:43;;;;;;;1.50;0.77;;;1.60;99.90;;;;;;2114007;28;20171;-68
2022/01/02 04:25:44;;;;;;;1.30;0.70;;;1.60;99.90;;;;;;2114140;28;20629;-67
2022/01/02 04:26:44;;;;;;;0.63;0.60;;;1.60;99.90;;;;;;2114122;28;20176;-68
2022/01/02 04:27:45;;;;;;;1.50;0.80;;;1.60;99.90;;;;;;2114182;28;20687;-68
2022/01/02 04:28:46;;;;;;;0.70;0.60;;;1.70;99.90;;;;;;2113577;28;20176;-68
2022/01/02 04:29:47;;;;;;;1.93;1.00;;;1.70;99.90;;;;;;2113520;28;20181;-67
2022/01/02 04:30:47;;;;;;;1.00;0.90;;;1.80;99.90;;;;;;2114147;28;20201;-68
2022/01/02 04:31:48;;;;;;;2.00;0.80;;;1.90;99.90;;;;;;2113429;28;20745;-67
2022/01/02 04:32:49;;;;;;;0.80;0.80;;;2.00;99.90;;;;;;2113605;28;20177;-68
2022/01/02 04:33:50;;;;;;;1.37;0.70;;;2.00;99.90;;;;;;2114187;28;20175;-67
2022/01/02 04:34:51;;;;;;;1.30;0.70;;;2.10;99.90;;;;;;2113349;28;20264;-67
2022/01/02 04:35:51;;;;;;;1.08;0.98;;;2.10;99.90;;;;;;2105011;28;20654;-67
2022/01/02 04:36:52;;;;;;;0.87;0.70;;;2.10;99.90;;;;;;2113505;28;20166;-68
2022/01/02 04:37:53;;;;;;;0.67;0.67;;;2.10;99.90;;;;;;2114050;28;20221;-67
2022/01/02 04:38:53;;;;;;;1.53;0.50;;;2.10;99.90;;;;;;2104957;28;20179;-68
2022/01/02 04:39:54;;;;;;;0.77;0.70;;;2.10;99.90;;;;;;2096607;28;20172;-67
2022/01/02 04:40:55;;;;;;;0.83;0.70;;;2.10;99.90;;;;;;2113501;28;20192;-67
2022/01/02 04:41:55;;;;;;;1.40;0.80;;;2.00;99.90;;;;;;2114117;28;20552;-67
2022/01/02 04:42:56;;;;;;;0.70;0.70;;;2.00;99.90;;;;;;2115366;28;20167;-69
2022/01/02 04:43:57;;;;;;;1.33;0.73;;;1.90;99.90;;;;;;2111129;28;20182;-69
2022/01/02 04:44:57;;;;;;;0.63;0.63;;;2.00;99.90;;;;;;2106516;28;20642;-69
2022/01/02 04:45:58;;;;;;;1.23;0.87;;;1.90;99.90;;;;;;2107374;28;20897;-68
2022/01/02 04:46:59;;;;;;;1.10;0.60;;;2.00;99.90;;;;;;2107228;28;20672;-69
2022/01/02 04:48:00;;;;;;;0.90;0.70;;;1.90;99.90;;;;;;2106619;28;20178;-69
2022/01/02 04:49:00;;;;;;;0.90;0.70;;;2.00;99.90;;;;;;2106701;28;20177;-69
2022/01/02 04:50:03;;;;;;;1.23;0.90;;;2.00;99.90;;;;;;2107317;28;20707;-69
2022/01/02 04:51:03;;;;;;;0.73;0.70;;;2.00;99.90;;;;;;2106490;28;20595;-69
2022/01/02 04:52:04;;;;;;;1.53;0.60;;;1.90;99.90;;;;;;2106663;28;20184;-68
2022/01/02 04:53:05;;;;;;;0.90;0.60;;;1.90;99.90;;;;;;2107177;28;20184;-69
2022/01/02 04:54:06;;;;;;;1.00;0.70;;;2.00;99.90;;;;;;2107260;28;20211;-69
2022/01/02 04:55:07;;;;;;;1.67;0.80;;;1.90;99.90;;;;;;2107109;28;20179;-68
2022/01/02 04:56:07;;;;;;;1.38;0.70;;;1.90;99.90;;;;;;2107233;28;20276;-69
2022/01/02 04:57:08;;;;;;;0.80;0.60;;;1.90;99.90;;;;;;2107197;28;20179;-69
2022/01/02 04:58:09;;;;;;;0.63;0.60;;;1.80;99.90;;;;;;2106686;28;20572;-69
2022/01/02 04:59:10;;;;;;;1.83;0.80;;;1.80;99.90;;;;;;2106643;28;20182;-69
2022/01/02 05:00:11;;;;;;;1.03;0.93;;;1.80;99.90;;;;;;2107302;28;20185;-69
2022/01/02 05:01:14;;;;;;;0.80;0.80;;;1.80;99.90;;;;;;2106925;28;20273;-69
2022/01/02 05:02:14;;;;;;;0.85;0.77;;;1.80;99.90;;;;;;2107198;28;20754;-69
2022/01/02 05:03:15;;;;;;;1.00;0.73;;;1.80;99.90;;;;;;2107167;28;20179;-69
2022/01/02 05:04:16;;;;;;;3.33;0.93;;;1.80;99.90;;;;;;2107202;28;20183;-69
2022/01/02 05:05:17;;;;;;;1.73;0.80;;;1.80;99.90;;;;;;2107028;28;20254;-68
2022/01/02 05:06:17;;;;;;;1.07;0.80;;;1.80;99.90;;;;;;2106462;28;20213;-68
2022/01/02 05:07:18;;;;;;;0.93;0.80;;;1.90;99.90;;;;;;2106408;28;20221;-69
2022/01/02 05:08:18;;;;;;;1.07;0.90;;;1.90;99.90;;;;;;2107127;28;20285;-69
2022/01/02 05:09:19;;;;;;;1.60;0.70;;;1.90;99.90;;;;;;2107089;28;20184;-69
2022/01/02 05:10:20;;;;;;;0.70;0.60;;;1.90;99.90;;;;;;2107159;28;20190;-69
2022/01/02 05:11:20;;;;;;;0.70;0.70;;;2.00;99.90;;;;;;2107025;28;20193;-69
2022/01/02 05:12:21;;;;;;;0.90;0.70;;;2.00;99.90;;;;;;2106968;28;20267;-69
2022/01/02 05:13:22;;;;;;;2.97;0.70;;;2.00;99.90;;;;;;2107078;28;20176;-70
2022/01/02 05:14:22;;;;;;;1.30;0.80;;;2.00;99.90;;;;;;2107065;28;20255;-69
2022/01/02 05:15:23;;;;;;;0.90;0.73;;;2.00;99.90;;;;;;2108450;28;20187;-68
2022/01/02 05:16:24;;;;;;;0.60;0.60;;;2.00;99.90;;;;;;2114741;28;20170;-69
2022/01/02 05:17:24;;;;;;;1.33;0.70;;;2.00;99.90;;;;;;2114583;28;20163;-69
2022/01/02 05:18:25;;;;;;;1.87;0.83;;;2.00;99.90;;;;;;2114962;28;20176;-68
2022/01/02 05:19:26;;;;;;;0.87;0.77;;;2.00;99.90;;;;;;2114865;28;20225;-69
2022/01/02 05:20:26;;;;;;;0.93;0.60;;;2.00;99.90;;;;;;2106297;28;20180;-68
2022/01/02 05:21:27;;;;;;;2.30;0.70;;;1.90;99.90;;;;;;2106344;28;20194;-69
2022/01/02 05:22:28;;;;;;;0.50;0.50;;;1.90;99.90;;;;;;2115444;28;20257;-68
2022/01/02 05:23:29;;;;;;;0.73;0.50;;;1.90;99.90;;;;;;2115443;28;20174;-68
2022/01/02 05:24:30;;;;;;;0.77;0.70;;;1.90;99.90;;;;;;2114709;28;20205;-68
2022/01/02 05:25:30;;;;;;;0.90;0.63;;;1.80;99.90;;;;;;2114846;28;20174;-68
2022/01/02 05:26:31;;;;;;;1.03;0.60;;;1.80;99.90;;;;;;2115401;28;20176;-68
2022/01/02 05:27:32;;;;;;;0.77;0.70;;;1.80;99.90;;;;;;2115398;28;20625;-68
2022/01/02 05:28:32;;;;;;;0.87;0.70;;;1.80;99.90;;;;;;2115331;28;20315;-68
2022/01/02 05:29:33;;;;;;;0.80;0.70;;;1.80;99.90;;;;;;2114900;28;20203;-69
2022/01/02 05:30:34;;;;;;;0.87;0.70;;;1.80;99.90;;;;;;2114700;28;20175;-68
2022/01/02 05:31:34;;;;;;;0.80;0.80;;;1.80;99.90;;;;;;2115432;28;20668;-68
2022/01/02 05:32:35;;;;;;;1.83;1.03;;;1.90;99.90;;;;;;2115281;28;20224;-68
2022/01/02 05:33:36;;;;;;;1.07;0.70;;;1.90;99.90;;;;;;2115350;28;20170;-68
2022/01/02 05:34:36;;;;;;;0.93;0.80;;;1.90;99.90;;;;;;2115182;28;20276;-69
2022/01/02 05:35:37;;;;;;;0.97;0.90;;;1.90;99.90;;;;;;2115498;28;20633;-69
2022/01/02 05:36:38;;;;;;;0.68;0.60;;;1.90;99.90;;;;;;2115356;28;20530;-69